sensor_id;sensor_type;location;lat;lon;timestamp;pressure;altitude;pressure_sealevel;temperature;humidity
66486;BME280;53303;47.476;8.084;2022-07-23T00:02:08;96582.94;;;24.01;56.42
66486;BME280;53303;47.476;8.084;2022-07-23T00:04:36;96589.03;;;24.05;56.27
66486;BME280;53303;47.476;8.084;2022-07-23T00:07:02;96593.06;;;24.04;56.13
66486;BME280;53303;47.476;8.084;2022-07-23T00:09:27;96585.72;;;24.01;56.34
66486;BME280;53303;47.476;8.084;2022-07-23T00:11:58;96595.63;;;24.07;55.80
66486;BME280;53303;47.476;8.084;2022-07-23T00:14:23;96578.13;;;24.07;56.12
66486;BME280;53303;47.476;8.084;2022-07-23T00:16:48;96572.56;;;24.07;55.99
66486;BME280;53303;47.476;8.084;2022-07-23T00:19:14;96565.94;;;24.04;55.97
66486;BME280;53303;47.476;8.084;2022-07-23T00:21:41;96568.22;;;24.06;55.53
66486;BME280;53303;47.476;8.084;2022-07-23T00:24:07;96575.34;;;24.07;54.94
66486;BME280;53303;47.476;8.084;2022-07-23T00:26:32;96590.53;;;24.11;54.13
66486;BME280;53303;47.476;8.084;2022-07-23T00:28:58;96588.53;;;24.12;54.02
66486;BME280;53303;47.476;8.084;2022-07-23T00:31:23;96578.63;;;24.11;53.28
66486;BME280;53303;47.476;8.084;2022-07-23T00:33:49;96589.78;;;24.17;52.95
66486;BME280;53303;47.476;8.084;2022-07-23T00:36:14;96578.13;;;24.18;52.84
66486;BME280;53303;47.476;8.084;2022-07-23T00:38:42;96561.13;;;24.16;52.70
66486;BME280;53303;47.476;8.084;2022-07-23T00:41:07;96545.66;;;24.15;52.59
66486;BME280;53303;47.476;8.084;2022-07-23T00:43:35;96549.97;;;24.22;52.55
66486;BME280;53303;47.476;8.084;2022-07-23T00:46:00;96533.25;;;24.16;52.56
66486;BME280;53303;47.476;8.084;2022-07-23T00:48:30;96553.03;;;24.18;52.34
66486;BME280;53303;47.476;8.084;2022-07-23T00:50:56;96541.59;;;24.22;52.42
66486;BME280;53303;47.476;8.084;2022-07-23T00:53:22;96533.50;;;24.24;52.39
66486;BME280;53303;47.476;8.084;2022-07-23T00:55:48;96535.28;;;24.21;52.40
66486;BME280;53303;47.476;8.084;2022-07-23T00:58:15;96525.88;;;24.19;52.36
66486;BME280;53303;47.476;8.084;2022-07-23T01:00:41;96531.72;;;24.26;52.39
66486;BME280;53303;47.476;8.084;2022-07-23T01:03:07;96527.16;;;24.23;52.21
66486;BME280;53303;47.476;8.084;2022-07-23T01:05:32;96522.06;;;24.27;52.31
66486;BME280;53303;47.476;8.084;2022-07-23T01:07:58;96506.38;;;24.24;52.55
66486;BME280;53303;47.476;8.084;2022-07-23T01:10:24;96498.00;;;24.24;52.42
66486;BME280;53303;47.476;8.084;2022-07-23T01:15:27;96512.44;;;24.28;52.42
66486;BME280;53303;47.476;8.084;2022-07-23T01:17:53;96512.44;;;24.28;52.46
66486;BME280;53303;47.476;8.084;2022-07-23T01:20:21;96512.97;;;24.27;52.42
66486;BME280;53303;47.476;8.084;2022-07-23T01:22:47;96522.31;;;24.29;52.30
66486;BME280;53303;47.476;8.084;2022-07-23T01:25:12;96528.69;;;24.30;52.05
66486;BME280;53303;47.476;8.084;2022-07-23T01:27:39;96518.03;;;24.28;52.23
66486;BME280;53303;47.476;8.084;2022-07-23T01:30:06;96514.47;;;24.28;52.07
66486;BME280;53303;47.476;8.084;2022-07-23T01:32:31;96488.84;;;24.29;52.38
66486;BME280;53303;47.476;8.084;2022-07-23T01:34:57;96481.50;;;24.32;52.42
66486;BME280;53303;47.476;8.084;2022-07-23T01:37:22;96490.38;;;24.30;52.56
66486;BME280;53303;47.476;8.084;2022-07-23T01:39:48;96487.09;;;24.26;52.25
66486;BME280;53303;47.476;8.084;2022-07-23T01:42:13;96499.75;;;24.27;52.04
66486;BME280;53303;47.476;8.084;2022-07-23T01:44:39;96506.63;;;24.26;51.94
66486;BME280;53303;47.476;8.084;2022-07-23T01:47:04;96521.06;;;24.30;51.48
66486;BME280;53303;47.476;8.084;2022-07-23T01:49:29;96535.25;;;24.32;51.70
66486;BME280;53303;47.476;8.084;2022-07-23T01:51:55;96533.47;;;24.29;51.52
66486;BME280;53303;47.476;8.084;2022-07-23T01:54:31;96523.59;;;24.34;51.56
66486;BME280;53303;47.476;8.084;2022-07-23T01:56:57;96514.22;;;24.31;51.32
66486;BME280;53303;47.476;8.084;2022-07-23T01:59:23;96509.91;;;24.30;51.52
66486;BME280;53303;47.476;8.084;2022-07-23T02:01:49;96523.84;;;24.36;51.58
66486;BME280;53303;47.476;8.084;2022-07-23T02:04:22;96531.44;;;24.36;51.22
66486;BME280;53303;47.476;8.084;2022-07-23T02:06:48;96535.00;;;24.30;51.65
66486;BME280;53303;47.476;8.084;2022-07-23T02:09:13;96545.41;;;24.36;51.62
66486;BME280;53303;47.476;8.084;2022-07-23T02:11:39;96553.00;;;24.29;51.74
66486;BME280;53303;47.476;8.084;2022-07-23T02:14:04;96562.88;;;24.36;51.57
66486;BME280;53303;47.476;8.084;2022-07-23T02:16:30;96562.38;;;24.32;51.51
66486;BME280;53303;47.476;8.084;2022-07-23T02:18:55;96558.06;;;24.31;51.85
66486;BME280;53303;47.476;8.084;2022-07-23T02:21:21;96570.50;;;24.36;51.98
66486;BME280;53303;47.476;8.084;2022-07-23T02:23:46;96556.56;;;24.36;52.36
66486;BME280;53303;47.476;8.084;2022-07-23T02:26:11;96534.50;;;24.32;52.45
66486;BME280;53303;47.476;8.084;2022-07-23T02:28:37;96519.81;;;24.31;52.34
66486;BME280;53303;47.476;8.084;2022-07-23T02:31:02;96520.03;;;24.33;52.19
66486;BME280;53303;47.476;8.084;2022-07-23T02:33:31;96520.56;;;24.32;52.00
66486;BME280;53303;47.476;8.084;2022-07-23T02:35:56;96531.97;;;24.34;52.15
66486;BME280;53303;47.476;8.084;2022-07-23T02:38:21;96534.75;;;24.28;52.06
66486;BME280;53303;47.476;8.084;2022-07-23T02:40:47;96551.72;;;24.36;52.08
66486;BME280;53303;47.476;8.084;2022-07-23T02:43:12;96564.91;;;24.36;52.00
66486;BME280;53303;47.476;8.084;2022-07-23T02:45:38;96565.69;;;24.30;52.48
66486;BME280;53303;47.476;8.084;2022-07-23T02:48:03;96560.59;;;24.35;52.45
66486;BME280;53303;47.476;8.084;2022-07-23T02:50:31;96557.31;;;24.36;52.58
66486;BME280;53303;47.476;8.084;2022-07-23T02:52:56;96548.94;;;24.30;52.54
66486;BME280;53303;47.476;8.084;2022-07-23T02:55:24;96537.78;;;24.30;52.86
66486;BME280;53303;47.476;8.084;2022-07-23T02:57:50;96546.66;;;24.35;52.97
66486;BME280;53303;47.476;8.084;2022-07-23T03:00:18;96551.47;;;24.34;52.82
66486;BME280;53303;47.476;8.084;2022-07-23T03:02:43;96552.22;;;24.35;52.72
66486;BME280;53303;47.476;8.084;2022-07-23T03:05:09;96537.06;;;24.24;52.61
66486;BME280;53303;47.476;8.084;2022-07-23T03:07:34;96556.56;;;24.36;52.25
66486;BME280;53303;47.476;8.084;2022-07-23T03:10:00;96536.81;;;24.28;52.30
66486;BME280;53303;47.476;8.084;2022-07-23T03:12:25;96556.06;;;24.37;51.99
66486;BME280;53303;47.476;8.084;2022-07-23T03:14:51;96557.31;;;24.36;52.48
66486;BME280;53303;47.476;8.084;2022-07-23T03:17:16;96562.13;;;24.36;52.42
66486;BME280;53303;47.476;8.084;2022-07-23T03:19:42;96550.22;;;24.35;52.53
66486;BME280;53303;47.476;8.084;2022-07-23T03:22:09;96550.47;;;24.31;52.75
66486;BME280;53303;47.476;8.084;2022-07-23T03:24:37;96564.91;;;24.36;52.20
66486;BME280;53303;47.476;8.084;2022-07-23T03:27:25;96583.16;;;24.37;52.18
66486;BME280;53303;47.476;8.084;2022-07-23T03:29:53;96601.44;;;24.38;52.25
66486;BME280;53303;47.476;8.084;2022-07-23T03:32:20;96614.88;;;24.39;52.19
66486;BME280;53303;47.476;8.084;2022-07-23T03:34:48;96615.63;;;24.34;52.59
66486;BME280;53303;47.476;8.084;2022-07-23T03:37:13;96585.44;;;24.38;52.87
66486;BME280;53303;47.476;8.084;2022-07-23T03:39:39;96579.63;;;24.36;53.29
66486;BME280;53303;47.476;8.084;2022-07-23T03:42:05;96580.91;;;24.35;53.45
66486;BME280;53303;47.476;8.084;2022-07-23T03:44:30;96561.63;;;24.37;54.19
66486;BME280;53303;47.476;8.084;2022-07-23T03:46:56;96574.03;;;24.36;54.13
66486;BME280;53303;47.476;8.084;2022-07-23T03:49:21;96609.03;;;24.37;54.32
66486;BME280;53303;47.476;8.084;2022-07-23T03:51:47;96606.00;;;24.29;53.92
66486;BME280;53303;47.476;8.084;2022-07-23T03:54:14;96608.28;;;24.37;54.17
66486;BME280;53303;47.476;8.084;2022-07-23T03:56:40;96579.63;;;24.30;54.22
66486;BME280;53303;47.476;8.084;2022-07-23T03:59:05;96596.34;;;24.36;54.24
66486;BME280;53303;47.476;8.084;2022-07-23T04:01:31;96597.66;;;24.35;54.54
66486;BME280;53303;47.476;8.084;2022-07-23T04:03:58;96606.00;;;24.35;54.44
66486;BME280;53303;47.476;8.084;2022-07-23T04:06:24;96607.03;;;24.32;54.64
66486;BME280;53303;47.476;8.084;2022-07-23T04:08:49;96626.28;;;24.36;54.35
66486;BME280;53303;47.476;8.084;2022-07-23T04:11:15;96637.44;;;24.30;54.50
66486;BME280;53303;47.476;8.084;2022-07-23T04:13:40;96656.97;;;24.36;54.92
66486;BME280;53303;47.476;8.084;2022-07-23T04:16:06;96668.63;;;24.34;55.37
66486;BME280;53303;47.476;8.084;2022-07-23T04:18:31;96663.56;;;24.32;55.04
66486;BME280;53303;47.476;8.084;2022-07-23T04:20:57;96651.16;;;24.33;55.14
66486;BME280;53303;47.476;8.084;2022-07-23T04:23:22;96595.88;;;24.32;55.00
66486;BME280;53303;47.476;8.084;2022-07-23T04:25:50;96588.25;;;24.32;55.38
66486;BME280;53303;47.476;8.084;2022-07-23T04:28:18;96604.50;;;24.23;55.64
66486;BME280;53303;47.476;8.084;2022-07-23T04:30:43;96632.63;;;24.30;55.78
66486;BME280;53303;47.476;8.084;2022-07-23T04:33:09;96623.50;;;24.30;56.04
66486;BME280;53303;47.476;8.084;2022-07-23T04:35:35;96619.44;;;24.25;55.76
66486;BME280;53303;47.476;8.084;2022-07-23T04:38:01;96632.13;;;24.32;55.69
66486;BME280;53303;47.476;8.084;2022-07-23T04:40:27;96615.91;;;24.30;55.61
66486;BME280;53303;47.476;8.084;2022-07-23T04:42:53;96609.81;;;24.26;55.64
66486;BME280;53303;47.476;8.084;2022-07-23T04:45:18;96614.38;;;24.24;55.70
66486;BME280;53303;47.476;8.084;2022-07-23T04:47:43;96611.31;;;24.27;55.73
66486;BME280;53303;47.476;8.084;2022-07-23T04:50:09;96617.94;;;24.30;55.83
66486;BME280;53303;47.476;8.084;2022-07-23T04:52:34;96610.31;;;24.30;55.56
66486;BME280;53303;47.476;8.084;2022-07-23T04:55:00;96611.81;;;24.26;55.49
66486;BME280;53303;47.476;8.084;2022-07-23T04:57:25;96618.94;;;24.21;55.35
66486;BME280;53303;47.476;8.084;2022-07-23T04:59:51;96635.16;;;24.28;55.42
66486;BME280;53303;47.476;8.084;2022-07-23T05:02:18;96641.75;;;24.31;55.22
66486;BME280;53303;47.476;8.084;2022-07-23T05:04:44;96623.25;;;24.28;55.76
66486;BME280;53303;47.476;8.084;2022-07-23T05:07:09;96618.19;;;24.26;55.55
66486;BME280;53303;47.476;8.084;2022-07-23T05:09:37;96619.44;;;24.25;55.57
66486;BME280;53303;47.476;8.084;2022-07-23T05:12:03;96613.59;;;24.29;55.56
66486;BME280;53303;47.476;8.084;2022-07-23T05:14:28;96601.69;;;24.28;55.69
66486;BME280;53303;47.476;8.084;2022-07-23T05:16:54;96608.28;;;24.31;55.96
66486;BME280;53303;47.476;8.084;2022-07-23T05:19:20;96602.19;;;24.32;55.85
66486;BME280;53303;47.476;8.084;2022-07-23T05:21:45;96608.78;;;24.29;56.18
66486;BME280;53303;47.476;8.084;2022-07-23T05:24:14;96604.47;;;24.34;56.06
66486;BME280;53303;47.476;8.084;2022-07-23T05:26:41;96605.50;;;24.31;56.39
66486;BME280;53303;47.476;8.084;2022-07-23T05:29:09;96610.06;;;24.34;56.13
66486;BME280;53303;47.476;8.084;2022-07-23T05:31:34;96601.69;;;24.28;56.05
66486;BME280;53303;47.476;8.084;2022-07-23T05:34:00;96614.88;;;24.33;56.27
66486;BME280;53303;47.476;8.084;2022-07-23T05:36:25;96620.22;;;24.31;56.30
66486;BME280;53303;47.476;8.084;2022-07-23T05:38:51;96618.44;;;24.28;56.34
66486;BME280;53303;47.476;8.084;2022-07-23T05:41:16;96621.72;;;24.32;56.02
66486;BME280;53303;47.476;8.084;2022-07-23T05:43:42;96626.03;;;24.28;56.01
66486;BME280;53303;47.476;8.084;2022-07-23T05:46:07;96649.59;;;24.32;56.16
66486;BME280;53303;47.476;8.084;2022-07-23T05:48:35;96655.69;;;24.31;56.59
66486;BME280;53303;47.476;8.084;2022-07-23T05:51:03;96662.31;;;24.33;56.46
66486;BME280;53303;47.476;8.084;2022-07-23T05:53:32;96658.72;;;24.33;56.63
66486;BME280;53303;47.476;8.084;2022-07-23T05:55:58;96644.03;;;24.27;56.79
66486;BME280;53303;47.476;8.084;2022-07-23T05:58:23;96639.47;;;24.24;56.59
66486;BME280;53303;47.476;8.084;2022-07-23T06:00:49;96662.06;;;24.31;56.64
66486;BME280;53303;47.476;8.084;2022-07-23T06:03:14;96657.22;;;24.26;56.54
66486;BME280;53303;47.476;8.084;2022-07-23T06:05:43;96661.53;;;24.33;56.65
66486;BME280;53303;47.476;8.084;2022-07-23T06:08:08;96656.72;;;24.33;56.69
66486;BME280;53303;47.476;8.084;2022-07-23T06:10:34;96665.09;;;24.33;56.64
66486;BME280;53303;47.476;8.084;2022-07-23T06:12:59;96652.41;;;24.27;56.84
66486;BME280;53303;47.476;8.084;2022-07-23T06:15:27;96665.09;;;24.33;57.00
66486;BME280;53303;47.476;8.084;2022-07-23T06:17:52;96662.06;;;24.31;57.03
66486;BME280;53303;47.476;8.084;2022-07-23T06:20:20;96648.09;;;24.26;56.77
66486;BME280;53303;47.476;8.084;2022-07-23T06:22:46;96646.31;;;24.23;57.20
66486;BME280;53303;47.476;8.084;2022-07-23T06:25:11;96658.75;;;24.39;57.06
66486;BME280;53303;47.476;8.084;2022-07-23T06:27:37;96630.59;;;24.42;57.95
66486;BME280;53303;47.476;8.084;2022-07-23T06:30:02;96645.56;;;24.39;57.51
66486;BME280;53303;47.476;8.084;2022-07-23T06:32:30;96642.25;;;24.18;54.81
66486;BME280;53303;47.476;8.084;2022-07-23T06:35:00;96660.25;;;24.06;51.12
66486;BME280;53303;47.476;8.084;2022-07-23T06:37:26;96656.91;;;23.85;49.14
66486;BME280;53303;47.476;8.084;2022-07-23T06:39:56;96655.81;;;23.65;47.78
66486;BME280;53303;47.476;8.084;2022-07-23T06:42:21;96670.00;;;23.62;47.18
66486;BME280;53303;47.476;8.084;2022-07-23T06:44:50;96669.47;;;23.52;47.01
66486;BME280;53303;47.476;8.084;2022-07-23T06:47:15;96676.75;;;23.38;47.02
66486;BME280;53303;47.476;8.084;2022-07-23T06:49:40;96681.31;;;23.35;46.77
66486;BME280;53303;47.476;8.084;2022-07-23T06:52:07;96696.47;;;23.34;46.83
66486;BME280;53303;47.476;8.084;2022-07-23T06:54:35;96703.03;;;23.26;46.63
66486;BME280;53303;47.476;8.084;2022-07-23T06:57:00;96702.72;;;23.18;46.80
66486;BME280;53303;47.476;8.084;2022-07-23T06:59:26;96694.88;;;23.16;46.43
66486;BME280;53303;47.476;8.084;2022-07-23T07:01:51;96675.81;;;23.04;46.34
66486;BME280;53303;47.476;8.084;2022-07-23T07:04:17;96699.13;;;23.06;46.08
66486;BME280;53303;47.476;8.084;2022-07-23T07:06:42;96698.81;;;23.04;45.97
66486;BME280;53303;47.476;8.084;2022-07-23T07:09:08;96690.41;;;22.93;45.84
66486;BME280;53303;47.476;8.084;2022-07-23T07:11:35;96697.22;;;22.92;45.85
66486;BME280;53303;47.476;8.084;2022-07-23T07:14:01;96702.53;;;22.90;45.97
66486;BME280;53303;47.476;8.084;2022-07-23T07:16:26;96713.66;;;22.90;45.78
66486;BME280;53303;47.476;8.084;2022-07-23T07:18:52;96710.34;;;22.86;45.79
66486;BME280;53303;47.476;8.084;2022-07-23T07:21:17;96707.03;;;22.81;45.93
66486;BME280;53303;47.476;8.084;2022-07-23T07:23:43;96704.91;;;22.71;46.00
66486;BME280;53303;47.476;8.084;2022-07-23T07:26:13;96700.38;;;22.68;46.14
66486;BME280;53303;47.476;8.084;2022-07-23T07:28:38;96692.50;;;22.66;45.97
66486;BME280;53303;47.476;8.084;2022-07-23T07:31:06;96695.56;;;22.68;46.06
66486;BME280;53303;47.476;8.084;2022-07-23T07:33:32;96700.09;;;22.66;46.14
66486;BME280;53303;47.476;8.084;2022-07-23T07:35:57;96694.47;;;22.60;46.25
66486;BME280;53303;47.476;8.084;2022-07-23T07:38:23;96705.59;;;22.60;46.25
66486;BME280;53303;47.476;8.084;2022-07-23T07:40:49;96696.69;;;22.50;46.26
66486;BME280;53303;47.476;8.084;2022-07-23T07:43:14;96714.66;;;22.55;46.29
66486;BME280;53303;47.476;8.084;2022-07-23T07:45:39;96714.88;;;22.51;46.41
66486;BME280;53303;47.476;8.084;2022-07-23T07:48:05;96707.06;;;22.50;46.37
66486;BME280;53303;47.476;8.084;2022-07-23T07:50:30;96702.16;;;22.39;46.41
66486;BME280;53303;47.476;8.084;2022-07-23T07:52:56;96699.16;;;22.42;46.15
66486;BME280;53303;47.476;8.084;2022-07-23T07:55:26;96696.88;;;22.41;46.34
66486;BME280;53303;47.476;8.084;2022-07-23T07:57:52;96693.03;;;22.38;46.35
66486;BME280;53303;47.476;8.084;2022-07-23T08:00:20;96705.91;;;22.36;46.26
66486;BME280;53303;47.476;8.084;2022-07-23T08:02:51;96711.44;;;22.30;46.24
66486;BME280;53303;47.476;8.084;2022-07-23T08:05:27;96709.81;;;22.23;50.18
66486;BME280;53303;47.476;8.084;2022-07-23T08:07:53;96702.88;;;22.34;54.78
66486;BME280;53303;47.476;8.084;2022-07-23T08:10:23;96711.34;;;22.51;57.93
66486;BME280;53303;47.476;8.084;2022-07-23T08:12:51;96710.19;;;22.63;59.34
66486;BME280;53303;47.476;8.084;2022-07-23T08:15:18;96708.53;;;22.77;60.47
66486;BME280;53303;47.476;8.084;2022-07-23T08:17:48;96693.09;;;22.81;61.00
66486;BME280;53303;47.476;8.084;2022-07-23T08:20:17;96700.00;;;22.92;61.37
66486;BME280;53303;47.476;8.084;2022-07-23T08:22:53;96685.84;;;22.90;61.75
66486;BME280;53303;47.476;8.084;2022-07-23T08:25:30;96704.81;;;22.91;56.67
66486;BME280;53303;47.476;8.084;2022-07-23T08:27:57;96713.91;;;22.86;52.71
66486;BME280;53303;47.476;8.084;2022-07-23T08:30:23;96713.81;;;22.75;50.65
66486;BME280;53303;47.476;8.084;2022-07-23T08:33:13;96714.72;;;22.60;49.67
66486;BME280;53303;47.476;8.084;2022-07-23T08:35:41;96712.44;;;22.59;49.27
66486;BME280;53303;47.476;8.084;2022-07-23T08:38:09;96714.66;;;22.55;49.16
66486;BME280;53303;47.476;8.084;2022-07-23T08:40:37;96718.19;;;22.50;49.28
66486;BME280;53303;47.476;8.084;2022-07-23T08:43:09;96722.22;;;22.49;49.28
66486;BME280;53303;47.476;8.084;2022-07-23T08:45:37;96702.66;;;22.37;48.85
66486;BME280;53303;47.476;8.084;2022-07-23T08:48:06;96717.13;;;22.47;49.03
66486;BME280;53303;47.476;8.084;2022-07-23T08:50:32;96717.09;;;22.41;48.67
66486;BME280;53303;47.476;8.084;2022-07-23T08:52:59;96720.34;;;22.40;48.20
66486;BME280;53303;47.476;8.084;2022-07-23T08:55:30;96717.56;;;22.40;47.96
66486;BME280;53303;47.476;8.084;2022-07-23T08:57:55;96717.81;;;22.36;47.79
66486;BME280;53303;47.476;8.084;2022-07-23T09:00:22;96722.06;;;22.32;47.68
66486;BME280;53303;47.476;8.084;2022-07-23T09:02:48;96716.41;;;22.26;47.63
66486;BME280;53303;47.476;8.084;2022-07-23T09:05:15;96718.16;;;22.23;47.39
66486;BME280;53303;47.476;8.084;2022-07-23T09:08:06;96725.97;;;22.19;47.59
66486;BME280;53303;47.476;8.084;2022-07-23T09:13:37;96729.72;;;22.16;47.52
66486;BME280;53303;47.476;8.084;2022-07-23T09:18:37;96719.31;;;22.11;47.52
66486;BME280;53303;47.476;8.084;2022-07-23T09:23:56;96726.63;;;22.09;47.41
66486;BME280;53303;47.476;8.084;2022-07-23T09:34:33;96720.22;;;22.02;47.22
66486;BME280;53303;47.476;8.084;2022-07-23T09:39:38;96705.59;;;21.81;48.80
66486;BME280;53303;47.476;8.084;2022-07-23T09:42:23;96712.06;;;21.93;48.16
66486;BME280;53303;47.476;8.084;2022-07-23T09:44:54;96719.19;;;22.00;47.98
66486;BME280;53303;47.476;8.084;2022-07-23T09:47:21;96717.72;;;22.04;47.72
66486;BME280;53303;47.476;8.084;2022-07-23T09:50:00;96724.53;;;22.03;47.65
66486;BME280;53303;47.476;8.084;2022-07-23T09:52:30;96722.53;;;22.04;47.40
66486;BME280;53303;47.476;8.084;2022-07-23T09:55:01;96728.84;;;22.04;47.40
66486;BME280;53303;47.476;8.084;2022-07-23T09:57:29;96728.09;;;22.04;47.57
66486;BME280;53303;47.476;8.084;2022-07-23T10:00:02;96734.66;;;22.06;47.55
66486;BME280;53303;47.476;8.084;2022-07-23T10:02:34;96732.88;;;22.03;47.38
66486;BME280;53303;47.476;8.084;2022-07-23T10:05:02;96745.03;;;22.06;47.42
66486;BME280;53303;47.476;8.084;2022-07-23T10:07:31;96738.72;;;22.05;47.58
66486;BME280;53303;47.476;8.084;2022-07-23T10:10:00;96737.38;;;22.01;47.51
66486;BME280;53303;47.476;8.084;2022-07-23T10:12:28;96731.84;;;22.01;47.58
66486;BME280;53303;47.476;8.084;2022-07-23T10:14:56;96737.97;;;22.05;47.63
66486;BME280;53303;47.476;8.084;2022-07-23T10:17:25;96737.38;;;22.01;47.46
66486;BME280;53303;47.476;8.084;2022-07-23T10:19:53;96732.53;;;21.96;47.44
66486;BME280;53303;47.476;8.084;2022-07-23T10:41:04;96740.88;;;22.42;49.00
66486;BME280;53303;47.476;8.084;2022-07-23T10:43:36;96754.97;;;22.65;48.94
66486;BME280;53303;47.476;8.084;2022-07-23T10:46:21;96746.44;;;22.74;49.43
66486;BME280;53303;47.476;8.084;2022-07-23T10:49:22;96744.25;;;22.84;49.59
66486;BME280;53303;47.476;8.084;2022-07-23T10:54:36;96727.38;;;22.99;50.17
66486;BME280;53303;47.476;8.084;2022-07-23T10:57:06;96726.19;;;23.06;50.58
66486;BME280;53303;47.476;8.084;2022-07-23T11:02:25;96733.88;;;23.22;52.01
66486;BME280;53303;47.476;8.084;2022-07-23T11:04:52;96737.25;;;23.32;52.84
66486;BME280;53303;47.476;8.084;2022-07-23T11:07:18;96719.00;;;23.31;53.01
66486;BME280;53303;47.476;8.084;2022-07-23T11:09:44;96722.81;;;23.33;53.40
66486;BME280;53303;47.476;8.084;2022-07-23T11:15:11;96731.00;;;23.48;54.77
66486;BME280;53303;47.476;8.084;2022-07-23T11:17:57;96734.56;;;23.54;55.64
66486;BME280;53303;47.476;8.084;2022-07-23T11:20:25;96730.78;;;23.57;56.00
66486;BME280;53303;47.476;8.084;2022-07-23T11:22:52;96735.13;;;23.70;57.21
66486;BME280;53303;47.476;8.084;2022-07-23T11:27:51;96713.19;;;23.89;55.70
66486;BME280;53303;47.476;8.084;2022-07-23T11:32:52;96727.72;;;23.55;48.87
66486;BME280;53303;47.476;8.084;2022-07-23T11:37:45;96722.84;;;23.39;50.48
66486;BME280;53303;47.476;8.084;2022-07-23T11:40:13;96723.84;;;23.36;54.21
66486;BME280;53303;47.476;8.084;2022-07-23T11:42:52;96715.44;;;23.25;50.56
66486;BME280;53303;47.476;8.084;2022-07-23T11:45:18;96714.63;;;23.18;49.19
66486;BME280;53303;47.476;8.084;2022-07-23T11:47:44;96713.63;;;23.22;48.96
66486;BME280;53303;47.476;8.084;2022-07-23T11:50:12;96716.91;;;23.20;49.10
66486;BME280;53303;47.476;8.084;2022-07-23T11:52:38;96688.75;;;23.07;50.72
66486;BME280;53303;47.476;8.084;2022-07-23T11:55:07;96708.34;;;23.24;53.47
66486;BME280;53303;47.476;8.084;2022-07-23T11:57:39;96720.44;;;23.21;50.46
66486;BME280;53303;47.476;8.084;2022-07-23T12:00:08;96706.50;;;23.15;48.67
66486;BME280;53303;47.476;8.084;2022-07-23T12:02:37;96697.03;;;23.01;48.03
66486;BME280;53303;47.476;8.084;2022-07-23T12:05:06;96686.41;;;22.99;47.42
66486;BME280;53303;47.476;8.084;2022-07-23T12:07:33;96695.78;;;23.02;47.40
66486;BME280;53303;47.476;8.084;2022-07-23T12:10:22;96695.53;;;23.00;47.05
66486;BME280;53303;47.476;8.084;2022-07-23T12:12:50;96697.25;;;22.97;46.91
66486;BME280;53303;47.476;8.084;2022-07-23T12:15:19;96690.41;;;22.93;46.88
66486;BME280;53303;47.476;8.084;2022-07-23T12:17:47;96682.78;;;22.88;46.52
66486;BME280;53303;47.476;8.084;2022-07-23T12:20:18;96691.16;;;22.93;46.47
66486;BME280;53303;47.476;8.084;2022-07-23T12:22:48;96688.13;;;22.91;46.31
66486;BME280;53303;47.476;8.084;2022-07-23T12:25:22;96679.47;;;22.84;46.04
66486;BME280;53303;47.476;8.084;2022-07-23T12:33:12;96685.09;;;22.89;46.24
66486;BME280;53303;47.476;8.084;2022-07-23T12:35:43;96683.53;;;22.88;46.20
66486;BME280;53303;47.476;8.084;2022-07-23T12:38:18;96673.63;;;22.81;45.99
66486;BME280;53303;47.476;8.084;2022-07-23T12:40:53;96675.88;;;22.77;46.15
66486;BME280;53303;47.476;8.084;2022-07-23T12:43:26;96685.09;;;22.89;46.20
66486;BME280;53303;47.476;8.084;2022-07-23T12:45:55;96689.38;;;22.90;46.58
66486;BME280;53303;47.476;8.084;2022-07-23T12:48:30;96686.09;;;22.92;46.34
66486;BME280;53303;47.476;8.084;2022-07-23T12:51:01;96673.91;;;22.84;46.35
66486;BME280;53303;47.476;8.084;2022-07-23T12:56:00;96675.94;;;22.89;46.02
66486;BME280;53303;47.476;8.084;2022-07-23T12:58:26;96682.28;;;22.89;45.91
66486;BME280;53303;47.476;8.084;2022-07-23T13:01:00;96671.63;;;22.82;45.67
66486;BME280;53303;47.476;8.084;2022-07-23T13:05:52;96668.06;;;22.81;45.52
66486;BME280;53303;47.476;8.084;2022-07-23T13:08:17;96661.75;;;22.81;45.70
66486;BME280;53303;47.476;8.084;2022-07-23T13:10:43;96663.28;;;22.82;45.83
66486;BME280;53303;47.476;8.084;2022-07-23T13:13:15;96674.94;;;22.86;45.74
66486;BME280;53303;47.476;8.084;2022-07-23T13:15:41;96666.31;;;22.84;45.78
66486;BME280;53303;47.476;8.084;2022-07-23T13:18:07;96654.91;;;22.76;45.83
66486;BME280;53303;47.476;8.084;2022-07-23T13:20:32;96641.72;;;22.71;45.84
66486;BME280;53303;47.476;8.084;2022-07-23T13:22:59;96667.06;;;22.85;46.06
66486;BME280;53303;47.476;8.084;2022-07-23T13:25:29;96637.66;;;22.72;45.64
66486;BME280;53303;47.476;8.084;2022-07-23T13:27:55;96658.25;;;22.86;45.74
66486;BME280;53303;47.476;8.084;2022-07-23T13:30:20;96647.84;;;22.87;45.73
66486;BME280;53303;47.476;8.084;2022-07-23T13:32:47;96645.53;;;22.79;45.41
66486;BME280;53303;47.476;8.084;2022-07-23T13:35:16;96639.72;;;22.77;45.38
66486;BME280;53303;47.476;8.084;2022-07-23T13:37:42;96626.25;;;22.70;45.46
66486;BME280;53303;47.476;8.084;2022-07-23T13:40:07;96646.88;;;22.90;45.45
66486;BME280;53303;47.476;8.084;2022-07-23T13:42:33;96641.31;;;22.90;45.23
66486;BME280;53303;47.476;8.084;2022-07-23T13:44:59;96633.91;;;22.81;45.44
66486;BME280;53303;47.476;8.084;2022-07-23T13:47:27;96623.50;;;22.76;45.72
66486;BME280;53303;47.476;8.084;2022-07-23T13:49:55;96638.00;;;22.86;45.22
66486;BME280;53303;47.476;8.084;2022-07-23T13:52:20;96649.66;;;22.90;45.13
66486;BME280;53303;47.476;8.084;2022-07-23T13:54:46;96644.81;;;22.85;45.14
66486;BME280;53303;47.476;8.084;2022-07-23T13:57:14;96649.91;;;22.92;45.34
66486;BME280;53303;47.476;8.084;2022-07-23T13:59:39;96635.22;;;22.86;45.38
66486;BME280;53303;47.476;8.084;2022-07-23T14:02:15;96649.66;;;22.90;45.39
66486;BME280;53303;47.476;8.084;2022-07-23T14:04:44;96642.59;;;22.94;45.46
66486;BME280;53303;47.476;8.084;2022-07-23T14:07:10;96637.28;;;22.91;45.18
66486;BME280;53303;47.476;8.084;2022-07-23T14:09:37;96638.53;;;22.95;45.14